Time;durP1;ratioP1;P1;durP2;ratioP2;P2;SDS_P1;SDS_P2;PMS_P1;PMS_P2;Temp;Humidity;BMP_temperature;BMP_pressure;BME280_temperature;BME280_humidity;BME280_pressure;Samples;Min_cycle;Max_cycle;Signal;HPM_P1;HPM_P2
2021/05/15 00:00:02;;;;;;;2.08;1.38;;;10.70;72.30;;;;;;5048853;28;20039;-70
2021/05/15 00:02:28;;;;;;;1.17;1.10;;;10.70;72.40;;;;;;5053391;28;20017;-70
2021/05/15 00:04:53;;;;;;;1.75;1.20;;;10.70;72.20;;;;;;5050856;28;20033;-70
2021/05/15 00:07:19;;;;;;;1.20;1.10;;;10.60;72.10;;;;;;5053096;28;20389;-70
2021/05/15 00:09:44;;;;;;;3.15;1.20;;;10.60;72.20;;;;;;5053237;28;20106;-70
2021/05/15 00:12:10;;;;;;;1.65;1.10;;;10.50;72.20;;;;;;5052678;28;20031;-70
2021/05/15 00:14:36;;;;;;;2.03;0.90;;;10.50;72.40;;;;;;5052291;28;20029;-70
2021/05/15 00:17:02;;;;;;;1.08;0.98;;;10.40;72.50;;;;;;5052096;28;20037;-70
2021/05/15 00:19:28;;;;;;;1.15;1.05;;;10.40;72.60;;;;;;5052980;28;20719;-70
2021/05/15 00:21:54;;;;;;;1.88;0.90;;;10.40;72.80;;;;;;5053657;28;20029;-70
2021/05/15 00:24:19;;;;;;;1.83;0.77;;;10.40;72.90;;;;;;5052189;28;20031;-70
2021/05/15 00:26:45;;;;;;;0.90;0.90;;;10.40;73.00;;;;;;5052338;28;20029;-70
2021/05/15 00:29:11;;;;;;;1.98;0.98;;;10.50;73.00;;;;;;5053234;28;20029;-70
2021/05/15 00:31:38;;;;;;;3.10;1.08;;;10.50;73.00;;;;;;5052456;28;20100;-70
2021/05/15 00:34:04;;;;;;;1.15;0.90;;;10.50;73.50;;;;;;5051561;28;20435;-70
2021/05/15 00:36:29;;;;;;;2.03;0.88;;;10.50;73.10;;;;;;5053265;28;20024;-70
2021/05/15 00:38:55;;;;;;;1.00;0.90;;;10.50;73.20;;;;;;5052964;28;20086;-70
2021/05/15 00:41:20;;;;;;;0.70;0.70;;;10.50;73.20;;;;;;5052953;28;20096;-70
2021/05/15 00:43:58;;;;;;;2.55;1.30;;;10.60;73.30;;;;;;5052755;28;20025;-70
2021/05/15 00:46:27;;;;;;;1.13;0.75;;;10.60;73.20;;;;;;5052301;28;20036;-70
2021/05/15 00:48:53;;;;;;;0.85;0.75;;;10.50;73.30;;;;;;5052923;28;20029;-70
2021/05/15 00:51:20;;;;;;;1.55;1.10;;;10.60;73.30;;;;;;5052592;28;20045;-70
2021/05/15 00:53:46;;;;;;;1.67;1.27;;;10.60;73.20;;;;;;5041542;28;20029;-70
2021/05/15 00:56:12;;;;;;;1.52;1.42;;;10.50;73.20;;;;;;5050952;28;20051;-70
2021/05/15 00:58:40;;;;;;;2.88;1.92;;;10.50;73.80;;;;;;5052206;28;20021;-70
2021/05/15 01:01:06;;;;;;;3.83;1.60;;;10.50;73.40;;;;;;5052104;28;20119;-70
2021/05/15 01:03:32;;;;;;;4.13;1.77;;;10.50;73.50;;;;;;5057778;28;20139;-70
2021/05/15 01:05:57;;;;;;;2.70;1.63;;;10.50;73.60;;;;;;5052994;28;20114;-70
2021/05/15 01:08:23;;;;;;;0.93;0.93;;;10.50;73.60;;;;;;5051202;28;20021;-70
2021/05/15 01:10:49;;;;;;;1.52;0.77;;;10.50;73.70;;;;;;5052343;28;20032;-70
2021/05/15 01:13:23;;;;;;;1.10;1.00;;;10.50;73.60;;;;;;5052472;28;20025;-70
2021/05/15 01:15:48;;;;;;;3.28;0.90;;;10.50;73.70;;;;;;5051438;28;20449;-70
2021/05/15 01:18:14;;;;;;;1.50;0.90;;;10.50;73.70;;;;;;5051709;28;20107;-70
2021/05/15 01:20:39;;;;;;;1.00;0.70;;;10.50;73.70;;;;;;5032585;28;20461;-70
2021/05/15 01:23:05;;;;;;;1.33;0.85;;;10.50;73.80;;;;;;5048330;28;20416;-70
2021/05/15 01:25:31;;;;;;;1.00;0.60;;;10.50;73.90;;;;;;5039650;28;20061;-70
2021/05/15 01:27:56;;;;;;;2.00;0.98;;;10.50;73.90;;;;;;5046778;28;20526;-70
2021/05/15 01:30:22;;;;;;;1.45;1.02;;;10.50;73.90;;;;;;5051909;28;20056;-70
2021/05/15 01:32:48;;;;;;;0.75;0.75;;;10.60;74.00;;;;;;5050937;28;20388;-70
2021/05/15 01:35:18;;;;;;;0.95;0.85;;;10.60;73.90;;;;;;5050884;28;20175;-70
2021/05/15 01:37:44;;;;;;;3.83;0.98;;;10.50;73.90;;;;;;5034124;28;20063;-70
2021/05/15 01:40:11;;;;;;;0.70;0.60;;;10.50;73.90;;;;;;5051273;28;20119;-70
2021/05/15 01:42:36;;;;;;;1.88;0.80;;;10.50;73.90;;;;;;5051579;28;20477;-70
2021/05/15 01:45:04;;;;;;;1.33;0.70;;;10.40;73.80;;;;;;5031539;28;20040;-70
2021/05/15 01:47:34;;;;;;;1.15;0.80;;;10.40;73.80;;;;;;5028147;28;20025;-70
2021/05/15 01:50:00;;;;;;;0.60;0.60;;;10.40;73.90;;;;;;5051311;28;20025;-70
2021/05/15 01:52:25;;;;;;;0.95;0.88;;;10.30;73.80;;;;;;5051394;28;20422;-70
2021/05/15 01:54:51;;;;;;;0.60;0.60;;;10.30;73.80;;;;;;5049993;28;20031;-70
2021/05/15 01:57:17;;;;;;;0.60;0.60;;;10.20;73.90;;;;;;5041229;28;20104;-70
2021/05/15 01:59:42;;;;;;;1.27;0.70;;;10.20;73.90;;;;;;5050520;28;20055;-70
2021/05/15 02:02:08;;;;;;;2.13;0.70;;;10.20;74.00;;;;;;5050396;28;20074;-70
2021/05/15 02:04:33;;;;;;;0.70;0.70;;;10.20;74.10;;;;;;5050575;28;20376;-70
2021/05/15 02:06:59;;;;;;;1.25;0.80;;;10.20;74.20;;;;;;5050038;28;20032;-70
2021/05/15 02:09:24;;;;;;;1.92;0.80;;;10.20;74.30;;;;;;5049415;28;20124;-70
2021/05/15 02:11:50;;;;;;;1.52;0.88;;;10.10;74.20;;;;;;5049851;28;20068;-70
2021/05/15 02:14:16;;;;;;;0.65;0.65;;;10.10;74.30;;;;;;5052107;28;20112;-69
2021/05/15 02:16:42;;;;;;;1.48;0.93;;;10.10;74.30;;;;;;5050510;28;20037;-70
2021/05/15 02:19:07;;;;;;;0.95;0.95;;;10.10;74.50;;;;;;5050436;28;20033;-70
2021/05/15 02:21:33;;;;;;;0.90;0.80;;;10.00;74.50;;;;;;5032908;28;20477;-70
2021/05/15 02:23:59;;;;;;;0.73;0.70;;;10.00;74.50;;;;;;5048058;28;20102;-70
2021/05/15 02:26:25;;;;;;;1.13;0.80;;;10.00;74.60;;;;;;5051083;28;20040;-70
2021/05/15 02:28:51;;;;;;;0.90;0.90;;;10.00;74.70;;;;;;5051009;28;20036;-70
2021/05/15 02:31:16;;;;;;;0.60;0.60;;;10.00;74.80;;;;;;5050754;28;20390;-70
2021/05/15 02:33:42;;;;;;;1.58;0.80;;;9.90;74.80;;;;;;5032129;28;20025;-72
2021/05/15 02:36:08;;;;;;;1.48;0.77;;;9.90;74.80;;;;;;5049644;28;20111;-70
2021/05/15 02:38:34;;;;;;;1.20;0.82;;;9.90;75.00;;;;;;5050657;28;20032;-70
2021/05/15 02:40:59;;;;;;;1.05;0.90;;;9.90;75.00;;;;;;5048727;28;20029;-70
2021/05/15 02:43:25;;;;;;;1.58;0.90;;;9.80;75.00;;;;;;5050436;28;20017;-70
2021/05/15 02:45:50;;;;;;;3.05;0.95;;;9.80;75.00;;;;;;5048959;28;20025;-70
2021/05/15 02:48:16;;;;;;;2.38;1.10;;;9.80;75.10;;;;;;5049128;28;20025;-70
2021/05/15 02:50:44;;;;;;;1.35;1.15;;;9.70;75.00;;;;;;5050429;28;20020;-70
2021/05/15 02:53:10;;;;;;;2.00;1.17;;;9.70;75.10;;;;;;5051341;28;20405;-70
2021/05/15 02:55:36;;;;;;;1.17;0.95;;;9.70;75.40;;;;;;5048487;28;20109;-70
2021/05/15 02:58:01;;;;;;;2.15;0.85;;;9.60;75.20;;;;;;5037781;28;20098;-70
2021/05/15 03:00:28;;;;;;;0.80;0.80;;;9.60;75.20;;;;;;5049596;28;20048;-69
2021/05/15 03:02:55;;;;;;;1.75;0.93;;;9.60;75.30;;;;;;5049719;28;20021;-70
2021/05/15 03:05:23;;;;;;;1.20;0.80;;;9.60;75.40;;;;;;5047305;28;20021;-70
2021/05/15 03:07:49;;;;;;;1.48;0.90;;;9.60;75.40;;;;;;5050062;28;20021;-70
2021/05/15 03:10:16;;;;;;;0.98;0.82;;;9.60;75.50;;;;;;5049536;28;20100;-70
2021/05/15 03:12:43;;;;;;;0.60;0.60;;;9.50;75.40;;;;;;5049895;28;20086;-68
2021/05/15 03:15:11;;;;;;;1.33;0.70;;;9.50;75.40;;;;;;5049103;28;20052;-70
2021/05/15 03:17:41;;;;;;;2.97;0.80;;;9.50;75.50;;;;;;5049171;28;20072;-70
2021/05/15 03:20:09;;;;;;;1.83;0.90;;;9.50;75.60;;;;;;5032049;28;20028;-70
2021/05/15 03:22:35;;;;;;;0.85;0.70;;;9.50;75.80;;;;;;5050212;28;20365;-70
2021/05/15 03:25:01;;;;;;;1.17;0.95;;;9.50;75.80;;;;;;5029297;28;20017;-70
2021/05/15 03:27:27;;;;;;;1.15;1.00;;;9.50;75.80;;;;;;5048580;28;20075;-70
2021/05/15 03:29:53;;;;;;;1.95;0.98;;;9.50;75.90;;;;;;5032180;28;20498;-70
2021/05/15 03:32:18;;;;;;;0.70;0.70;;;9.40;75.80;;;;;;5052859;28;20036;-68
2021/05/15 03:34:45;;;;;;;3.10;0.90;;;9.40;75.80;;;;;;5053386;28;20040;-69
2021/05/15 03:37:11;;;;;;;0.98;0.70;;;9.40;75.90;;;;;;5053048;28;20017;-70
2021/05/15 03:39:37;;;;;;;1.02;0.82;;;9.40;75.90;;;;;;5035799;28;20056;-70
2021/05/15 03:42:02;;;;;;;1.88;0.73;;;9.40;76.00;;;;;;5049330;28;20021;-70
2021/05/15 03:44:28;;;;;;;0.88;0.63;;;9.30;76.00;;;;;;5051960;28;20099;-70
2021/05/15 03:46:53;;;;;;;1.48;1.00;;;9.30;76.10;;;;;;5071990;22;20067;-70
2021/05/15 03:49:19;;;;;;;0.85;0.82;;;9.30;76.20;;;;;;5037582;28;20024;-70
2021/05/15 03:51:45;;;;;;;1.40;0.80;;;9.30;76.20;;;;;;5051961;28;20695;-70
2021/05/15 03:54:10;;;;;;;0.73;0.73;;;9.30;76.20;;;;;;5052332;28;20029;-69
2021/05/15 03:56:36;;;;;;;0.77;0.77;;;9.30;76.20;;;;;;5050993;28;20102;-69
2021/05/15 03:59:02;;;;;;;1.00;0.88;;;9.30;76.20;;;;;;5047906;28;20037;-70
2021/05/15 04:01:28;;;;;;;1.55;1.00;;;9.20;76.30;;;;;;5048479;28;20048;-70
2021/05/15 04:03:53;;;;;;;1.20;1.10;;;9.20;76.20;;;;;;5051837;28;20100;-69
2021/05/15 04:06:19;;;;;;;1.67;1.00;;;9.20;76.30;;;;;;5034705;28;20078;-69
2021/05/15 04:08:44;;;;;;;2.15;1.10;;;9.20;76.30;;;;;;5049590;28;20032;-70
2021/05/15 04:11:10;;;;;;;3.13;1.10;;;9.20;76.40;;;;;;5052535;28;20028;-69
2021/05/15 04:16:32;;;;;;;1.60;1.13;;;9.10;77.00;;;;;;5050385;28;20078;-70
2021/05/15 04:18:50;;;;;;;3.95;1.27;;;9.10;76.60;;;;;;5051053;28;20095;-69
2021/05/15 04:21:16;;;;;;;2.47;1.60;;;9.20;76.60;;;;;;5033928;28;20025;-69
2021/05/15 04:23:41;;;;;;;1.15;1.05;;;9.20;76.60;;;;;;5033656;28;20029;-70
2021/05/15 04:26:10;;;;;;;1.45;1.30;;;9.20;76.60;;;;;;5051606;28;20025;-70
2021/05/15 04:28:36;;;;;;;3.03;1.55;;;9.20;76.70;;;;;;5034127;28;20083;-69
2021/05/15 04:31:02;;;;;;;1.02;0.90;;;9.20;76.60;;;;;;5052267;28;20483;-70
2021/05/15 04:33:28;;;;;;;3.00;1.30;;;9.20;76.60;;;;;;5052089;28;20396;-69
2021/05/15 04:35:55;;;;;;;1.90;1.00;;;9.20;76.70;;;;;;5050893;28;20028;-71
2021/05/15 04:38:21;;;;;;;0.88;0.88;;;9.30;76.90;;;;;;5050027;28;20028;-69
2021/05/15 04:40:47;;;;;;;2.58;1.10;;;9.30;77.00;;;;;;5052557;28;20021;-70
2021/05/15 04:43:14;;;;;;;1.25;0.90;;;9.40;76.90;;;;;;5051516;28;20021;-70
2021/05/15 04:45:43;;;;;;;1.10;0.90;;;9.50;76.90;;;;;;5050443;28;20486;-70
2021/05/15 04:48:10;;;;;;;3.25;1.10;;;9.60;76.80;;;;;;5048174;28;20040;-70
2021/05/15 04:50:36;;;;;;;1.65;1.00;;;9.70;76.80;;;;;;5051429;28;20067;-70
2021/05/15 04:53:02;;;;;;;0.98;0.82;;;9.70;76.70;;;;;;5051966;28;20028;-70
2021/05/15 04:55:27;;;;;;;0.88;0.77;;;9.90;76.90;;;;;;5051306;28;20025;-69
2021/05/15 04:57:54;;;;;;;1.00;0.85;;;10.00;76.90;;;;;;5049106;28;20174;-70
2021/05/15 05:00:20;;;;;;;1.02;0.80;;;10.10;76.90;;;;;;5050953;28;20453;-71
2021/05/15 05:02:45;;;;;;;0.75;0.75;;;10.20;76.80;;;;;;5051056;28;20049;-70
2021/05/15 05:05:11;;;;;;;1.30;0.90;;;10.30;76.40;;;;;;5051773;28;20031;-70
2021/05/15 05:07:37;;;;;;;1.83;0.93;;;10.40;76.20;;;;;;5051666;28;20033;-69
2021/05/15 05:10:04;;;;;;;0.95;0.82;;;10.40;76.00;;;;;;5049547;28;20021;-71
2021/05/15 05:12:29;;;;;;;2.15;0.80;;;10.50;76.00;;;;;;5033451;28;20020;-69
2021/05/15 05:14:55;;;;;;;1.00;0.90;;;10.60;75.90;;;;;;5049792;28;20315;-69
2021/05/15 05:17:21;;;;;;;1.05;0.70;;;10.70;75.80;;;;;;5034489;28;20025;-69
2021/05/15 05:19:46;;;;;;;1.90;0.90;;;10.70;75.70;;;;;;5051048;28;20032;-70
2021/05/15 05:22:12;;;;;;;0.82;0.63;;;10.80;75.60;;;;;;5033956;28;20017;-69
2021/05/15 05:24:39;;;;;;;1.42;0.70;;;10.90;75.50;;;;;;5049836;28;20029;-69
2021/05/15 05:27:05;;;;;;;2.90;0.90;;;11.00;75.20;;;;;;5049682;28;20021;-70
2021/05/15 05:29:30;;;;;;;1.15;0.70;;;11.00;75.20;;;;;;5056970;28;20043;-70
2021/05/15 05:31:56;;;;;;;3.15;1.00;;;11.00;75.10;;;;;;5032650;28;20051;-69
2021/05/15 05:34:22;;;;;;;1.35;0.80;;;11.00;75.00;;;;;;5050391;28;20024;-69
2021/05/15 05:36:48;;;;;;;3.17;0.70;;;10.90;74.90;;;;;;5048797;28;20033;-69
2021/05/15 05:39:19;;;;;;;0.90;0.70;;;10.90;74.80;;;;;;5058310;28;20021;-69
2021/05/15 05:41:46;;;;;;;0.88;0.80;;;10.90;74.80;;;;;;5049775;28;20024;-69
2021/05/15 05:44:12;;;;;;;0.70;0.70;;;10.80;74.60;;;;;;5032207;28;20052;-70
2021/05/15 05:46:38;;;;;;;0.98;0.80;;;10.80;74.70;;;;;;5050786;28;20021;-69
2021/05/15 05:49:04;;;;;;;0.70;0.70;;;10.90;74.80;;;;;;5030513;28;20075;-70
2021/05/15 05:51:29;;;;;;;2.28;0.85;;;10.90;74.80;;;;;;5033989;28;20116;-70
2021/05/15 05:53:55;;;;;;;1.27;0.80;;;10.90;74.80;;;;;;5049654;28;20452;-70
2021/05/15 05:56:21;;;;;;;3.70;2.08;;;10.80;74.60;;;;;;5051336;28;20028;-69
2021/05/15 05:58:46;;;;;;;1.00;0.90;;;10.80;74.70;;;;;;5024695;28;20108;-69
2021/05/15 06:01:13;;;;;;;1.25;0.63;;;10.90;74.80;;;;;;5047885;28;20017;-70
2021/05/15 06:03:40;;;;;;;1.17;0.65;;;10.90;74.80;;;;;;5053849;28;20568;-69
2021/05/15 06:06:06;;;;;;;1.85;0.70;;;10.90;74.70;;;;;;5035442;28;20036;-69
2021/05/15 06:08:31;;;;;;;0.60;0.60;;;11.00;74.80;;;;;;5031367;28;20523;-69
2021/05/15 06:10:58;;;;;;;2.08;1.60;;;11.00;74.70;;;;;;5032962;28;20040;-70
2021/05/15 06:13:24;;;;;;;1.63;0.90;;;11.00;74.50;;;;;;5050270;28;20114;-71
2021/05/15 06:15:49;;;;;;;1.13;0.60;;;11.20;74.70;;;;;;5049397;28;20473;-70
2021/05/15 06:18:15;;;;;;;0.68;0.52;;;11.20;74.60;;;;;;5048819;28;20025;-70
2021/05/15 06:20:42;;;;;;;1.20;0.50;;;11.30;74.50;;;;;;5049459;28;20374;-70
2021/05/15 06:23:07;;;;;;;1.38;0.70;;;11.30;74.40;;;;;;5048501;28;20032;-70
2021/05/15 06:25:33;;;;;;;1.48;0.60;;;11.40;74.40;;;;;;5047434;28;20025;-70
2021/05/15 06:27:58;;;;;;;0.98;0.60;;;11.50;74.40;;;;;;5049864;28;20028;-71
2021/05/15 06:30:24;;;;;;;0.50;0.40;;;11.50;74.20;;;;;;5047082;28;20056;-69
2021/05/15 06:32:50;;;;;;;0.68;0.50;;;11.60;74.10;;;;;;5052881;28;20064;-69
2021/05/15 06:35:15;;;;;;;0.40;0.40;;;11.60;73.70;;;;;;5031763;28;20116;-70
2021/05/15 06:37:41;;;;;;;3.05;0.90;;;11.60;73.80;;;;;;5031653;28;20032;-70
2021/05/15 06:40:08;;;;;;;3.28;1.65;;;11.60;73.90;;;;;;5031230;28;20378;-70
2021/05/15 06:42:34;;;;;;;2.33;0.77;;;11.70;74.00;;;;;;5057333;28;20048;-70
2021/05/15 06:44:59;;;;;;;0.55;0.55;;;11.70;74.10;;;;;;5030508;28;20111;-70
2021/05/15 06:47:25;;;;;;;0.60;0.60;;;11.80;73.90;;;;;;5041294;28;20117;-70
2021/05/15 06:49:51;;;;;;;1.20;0.60;;;11.80;73.50;;;;;;5048647;28;20036;-70
2021/05/15 06:52:17;;;;;;;1.35;0.40;;;11.90;73.60;;;;;;5049497;28;20029;-70
2021/05/15 06:54:43;;;;;;;0.60;0.60;;;12.00;73.40;;;;;;5048227;28;20447;-69
2021/05/15 06:57:09;;;;;;;0.95;0.50;;;12.30;73.00;;;;;;5043134;28;20028;-70
2021/05/15 06:59:35;;;;;;;1.92;0.57;;;12.60;73.00;;;;;;5037975;28;20033;-69
2021/05/15 07:02:01;;;;;;;1.33;0.50;;;12.80;72.70;;;;;;5052223;28;20524;-69
2021/05/15 07:04:28;;;;;;;0.60;0.60;;;13.00;72.30;;;;;;5048299;28;20112;-69
2021/05/15 07:06:54;;;;;;;1.25;0.70;;;13.40;71.50;;;;;;5046708;28;20021;-70
2021/05/15 07:09:20;;;;;;;4.05;1.73;;;13.50;71.20;;;;;;5030552;28;20075;-71
2021/05/15 07:11:45;;;;;;;0.50;0.50;;;13.50;70.70;;;;;;5031730;28;20067;-70
2021/05/15 07:14:11;;;;;;;1.63;0.52;;;13.50;70.50;;;;;;5047879;28;20082;-69
2021/05/15 07:16:36;;;;;;;0.50;0.50;;;13.50;70.50;;;;;;5046501;28;20350;-69
2021/05/15 07:19:02;;;;;;;0.70;0.55;;;14.00;69.70;;;;;;5049462;28;20029;-70
2021/05/15 07:21:28;;;;;;;0.65;0.40;;;14.50;68.90;;;;;;5030526;28;20120;-71
2021/05/15 07:23:53;;;;;;;1.02;0.60;;;15.10;68.50;;;;;;5048275;28;20028;-70
2021/05/15 07:26:19;;;;;;;1.38;0.40;;;15.50;67.00;;;;;;5031273;28;20473;-69
2021/05/15 07:28:44;;;;;;;0.77;0.50;;;15.70;66.30;;;;;;5047908;28;20475;-70
2021/05/15 07:31:10;;;;;;;0.65;0.50;;;16.00;64.90;;;;;;5047953;28;20025;-70
2021/05/15 07:33:36;;;;;;;2.92;2.00;;;16.00;65.10;;;;;;5030949;28;20714;-69
2021/05/15 07:36:01;;;;;;;2.67;1.30;;;16.00;65.70;;;;;;5048343;28;20036;-70
2021/05/15 07:38:27;;;;;;;0.65;0.60;;;16.70;65.00;;;;;;5047992;28;20396;-69
2021/05/15 07:40:54;;;;;;;1.08;0.50;;;17.40;64.00;;;;;;5049347;28;20399;-71
2021/05/15 07:43:26;;;;;;;0.40;0.40;;;18.10;62.80;;;;;;5048335;28;20017;-70
2021/05/15 07:45:53;;;;;;;0.50;0.50;;;18.70;60.50;;;;;;5043444;28;20126;-70
2021/05/15 07:48:28;;;;;;;1.05;0.55;;;18.80;60.30;;;;;;5043033;28;20044;-69
2021/05/15 07:50:58;;;;;;;1.00;0.50;;;19.40;59.70;;;;;;5047717;28;20036;-70
2021/05/15 07:53:24;;;;;;;0.40;0.30;;;19.90;58.90;;;;;;5049774;28;20493;-71
2021/05/15 07:55:51;;;;;;;2.47;0.45;;;20.10;56.90;;;;;;5048408;28;20151;-71
2021/05/15 07:58:17;;;;;;;0.70;0.30;;;19.20;57.80;;;;;;5029802;28;20021;-71
2021/05/15 08:00:43;;;;;;;0.45;0.40;;;18.50;58.40;;;;;;5048660;28;20017;-70
2021/05/15 08:03:09;;;;;;;0.50;0.30;;;17.90;59.10;;;;;;5049327;28;20027;-70
2021/05/15 08:05:34;;;;;;;0.57;0.28;;;18.20;58.70;;;;;;5048696;28;20033;-70
2021/05/15 08:08:02;;;;;;;0.95;0.50;;;17.60;59.00;;;;;;5029751;28;20388;-70
2021/05/15 08:10:28;;;;;;;2.03;0.30;;;17.70;59.50;;;;;;5047835;28;20021;-70
2021/05/15 08:12:53;;;;;;;0.45;0.22;;;17.90;59.20;;;;;;5049300;28;20040;-69
2021/05/15 08:15:19;;;;;;;3.40;0.47;;;17.70;58.50;;;;;;5044645;28;20029;-69
2021/05/15 08:17:45;;;;;;;1.00;0.50;;;18.30;57.10;;;;;;5031900;28;20037;-69
2021/05/15 08:20:11;;;;;;;0.88;0.50;;;18.20;57.90;;;;;;5052043;28;20493;-69
2021/05/15 08:22:36;;;;;;;0.50;0.50;;;18.40;57.90;;;;;;5051836;28;20032;-70
2021/05/15 08:25:05;;;;;;;1.10;0.52;;;19.10;56.30;;;;;;5051634;28;20025;-69
2021/05/15 08:27:31;;;;;;;1.05;0.32;;;19.60;55.50;;;;;;5046149;28;20033;-69
2021/05/15 08:29:59;;;;;;;0.40;0.40;;;20.30;54.10;;;;;;5051360;28;20037;-70
2021/05/15 08:32:25;;;;;;;0.90;0.38;;;19.70;54.10;;;;;;5051406;28;20056;-69
2021/05/15 08:34:51;;;;;;;0.38;0.30;;;19.60;54.20;;;;;;5048072;28;20427;-69
2021/05/15 08:37:16;;;;;;;0.45;0.28;;;18.80;55.20;;;;;;5049668;28;20385;-69
2021/05/15 08:39:42;;;;;;;2.47;0.57;;;19.10;55.10;;;;;;5045228;28;20499;-70
2021/05/15 08:42:08;;;;;;;1.92;1.05;;;19.80;53.90;;;;;;5056111;28;20082;-70
2021/05/15 08:44:38;;;;;;;0.45;0.40;;;19.50;54.70;;;;;;5049056;28;20104;-70
2021/05/15 08:47:05;;;;;;;1.65;0.30;;;20.10;53.40;;;;;;5032794;28;20025;-71
2021/05/15 08:49:35;;;;;;;0.50;0.30;;;21.70;51.50;;;;;;5051789;28;20029;-71
2021/05/15 08:52:02;;;;;;;1.05;0.35;;;22.30;49.70;;;;;;5034369;28;20037;-71
2021/05/15 08:54:27;;;;;;;0.75;0.30;;;21.20;51.70;;;;;;5051110;28;20048;-70
2021/05/15 08:56:53;;;;;;;1.02;0.32;;;20.20;52.50;;;;;;5048672;28;20477;-70
2021/05/15 08:59:19;;;;;;;1.65;0.32;;;19.30;53.60;;;;;;5050219;28;20813;-70
2021/05/15 09:01:45;;;;;;;1.13;0.52;;;18.60;55.00;;;;;;5052109;28;20033;-70
2021/05/15 09:04:12;;;;;;;0.95;0.57;;;18.00;55.60;;;;;;5033173;28;20032;-71
2021/05/15 09:06:41;;;;;;;0.45;0.40;;;17.40;56.10;;;;;;5052504;28;20508;-70
2021/05/15 09:09:07;;;;;;;1.38;1.05;;;16.90;57.20;;;;;;5052262;28;20044;-70
2021/05/15 09:11:33;;;;;;;0.70;0.55;;;17.00;57.70;;;;;;5050793;28;20025;-69
2021/05/15 09:14:00;;;;;;;0.80;0.32;;;17.00;57.70;;;;;;5065996;28;20043;-70
2021/05/15 09:16:27;;;;;;;0.63;0.40;;;17.00;57.50;;;;;;5049101;28;20087;-69
2021/05/15 09:18:52;;;;;;;1.33;0.50;;;16.80;57.20;;;;;;5050663;28;20091;-70
2021/05/15 09:21:21;;;;;;;0.50;0.40;;;16.60;57.30;;;;;;5050987;28;20029;-69
2021/05/15 09:23:49;;;;;;;1.17;0.43;;;16.30;57.70;;;;;;5052125;28;20349;-70
2021/05/15 09:26:18;;;;;;;3.10;0.60;;;16.00;58.10;;;;;;5042201;28;20021;-69
2021/05/15 09:28:58;;;;;;;0.32;0.32;;;15.90;59.00;;;;;;5049436;28;20105;-69
2021/05/15 09:31:31;;;;;;;0.50;0.47;;;15.80;58.90;;;;;;5048234;28;20029;-69
2021/05/15 09:33:59;;;;;;;0.30;0.30;;;15.90;58.90;;;;;;5049079;28;20040;-70
2021/05/15 09:36:35;;;;;;;0.30;0.30;;;15.90;59.30;;;;;;5051555;28;20396;-70
2021/05/15 09:39:20;;;;;;;0.25;0.25;;;15.90;59.30;;;;;;5051160;28;20484;-69
2021/05/15 09:41:51;;;;;;;0.52;0.35;;;15.90;59.20;;;;;;5033609;28;20024;-69
2021/05/15 09:44:28;;;;;;;1.58;0.63;;;15.80;59.40;;;;;;5029478;28;20021;-70
2021/05/15 09:49:29;;;;;;;0.57;0.50;;;16.10;59.50;;;;;;5057070;28;20045;-69
2021/05/15 09:52:05;;;;;;;0.35;0.28;;;16.20;59.00;;;;;;5067098;28;20035;-75
2021/05/15 09:54:30;;;;;;;1.67;0.65;;;16.40;58.70;;;;;;5073298;28;20086;-68
2021/05/15 09:57:01;;;;;;;0.55;0.30;;;17.10;58.50;;;;;;5067352;28;20032;-72
2021/05/15 09:59:35;;;;;;;0.52;0.35;;;18.10;57.80;;;;;;5079545;28;20036;-72
2021/05/15 10:02:08;;;;;;;0.90;0.30;;;18.60;57.10;;;;;;5061213;28;20051;-72
2021/05/15 10:04:34;;;;;;;1.60;0.40;;;18.60;57.20;;;;;;5079294;28;20056;-72
2021/05/15 10:07:01;;;;;;;0.85;0.57;;;18.40;56.90;;;;;;5076083;28;20028;-74
2021/05/15 10:09:32;;;;;;;2.05;0.40;;;18.10;56.70;;;;;;5076777;28;20036;-72
2021/05/15 10:11:59;;;;;;;0.32;0.32;;;17.70;56.70;;;;;;5057805;28;20056;-70
2021/05/15 10:14:25;;;;;;;1.02;0.40;;;17.40;56.60;;;;;;5073926;28;20054;-72
2021/05/15 10:16:51;;;;;;;1.58;0.80;;;17.10;57.10;;;;;;5073551;28;20062;-72
2021/05/15 10:19:17;;;;;;;3.58;0.60;;;17.00;57.70;;;;;;5052020;28;20024;-72
2021/05/15 10:21:43;;;;;;;0.40;0.40;;;17.10;58.00;;;;;;5058022;28;20074;-72
2021/05/15 10:24:30;;;;;;;3.70;0.70;;;17.10;57.70;;;;;;5057176;28;20039;-73
2021/05/15 10:26:55;;;;;;;1.17;0.38;;;17.30;57.40;;;;;;5057530;28;20020;-70
2021/05/15 10:29:21;;;;;;;2.00;0.50;;;17.50;57.30;;;;;;5074373;28;20032;-72
2021/05/15 10:31:52;;;;;;;1.65;0.30;;;18.00;57.20;;;;;;5075908;28;20097;-72
2021/05/15 10:34:18;;;;;;;2.08;0.47;;;18.20;56.70;;;;;;5051154;28;20028;-70
2021/05/15 10:36:46;;;;;;;0.50;0.30;;;18.50;56.40;;;;;;5075059;28;20027;-73
2021/05/15 10:39:12;;;;;;;1.13;0.40;;;18.50;55.90;;;;;;5077016;28;20024;-73
2021/05/15 10:41:45;;;;;;;1.17;0.57;;;18.50;56.00;;;;;;5079330;28;20024;-73
2021/05/15 10:44:12;;;;;;;1.20;0.30;;;18.30;55.40;;;;;;5075889;28;20024;-72
2021/05/15 10:46:46;;;;;;;0.95;0.50;;;18.10;55.10;;;;;;5082740;28;20094;-72
2021/05/15 10:49:24;;;;;;;1.02;0.98;;;17.80;55.10;;;;;;5080380;28;20021;-72
2021/05/15 10:51:49;;;;;;;0.57;0.40;;;17.50;55.20;;;;;;5080979;28;20035;-73
2021/05/15 10:54:28;;;;;;;1.48;0.50;;;17.30;55.70;;;;;;5076836;28;20033;-71
2021/05/15 10:57:00;;;;;;;0.30;0.30;;;17.20;55.90;;;;;;5070815;28;20024;-72
2021/05/15 10:59:26;;;;;;;0.70;0.60;;;17.10;55.50;;;;;;5071570;28;20029;-74
2021/05/15 11:01:55;;;;;;;1.00;0.93;;;17.00;55.60;;;;;;5069979;28;20099;-73
2021/05/15 11:04:23;;;;;;;0.50;0.40;;;17.10;56.30;;;;;;5068125;28;20107;-73
2021/05/15 11:07:05;;;;;;;0.52;0.38;;;17.30;56.50;;;;;;5051093;28;20056;-70
2021/05/15 11:09:34;;;;;;;0.95;0.50;;;17.50;55.70;;;;;;5068536;28;20387;-70
2021/05/15 11:12:15;;;;;;;1.55;0.30;;;17.80;56.20;;;;;;5041207;28;20031;-72
2021/05/15 11:14:46;;;;;;;2.92;0.40;;;17.90;56.50;;;;;;5050601;28;20062;-69
2021/05/15 11:17:21;;;;;;;0.20;0.20;;;18.00;55.80;;;;;;5051597;28;20086;-69
2021/05/15 11:20:07;;;;;;;0.95;0.40;;;18.00;55.10;;;;;;5064151;28;20712;-69
2021/05/15 11:22:44;;;;;;;0.38;0.30;;;18.00;54.70;;;;;;5052241;28;20098;-70
2021/05/15 11:25:13;;;;;;;1.95;0.40;;;17.90;54.10;;;;;;5065789;28;20032;-70
2021/05/15 11:27:56;;;;;;;1.00;0.43;;;17.90;54.60;;;;;;5069537;28;20440;-69
2021/05/15 11:30:45;;;;;;;0.43;0.30;;;18.00;54.40;;;;;;5069232;28;20406;-69
2021/05/15 11:33:12;;;;;;;1.08;0.40;;;18.10;54.20;;;;;;5051795;28;20028;-69
2021/05/15 11:35:40;;;;;;;1.92;0.50;;;18.00;53.80;;;;;;5069135;28;20384;-69
2021/05/15 11:38:16;;;;;;;1.77;0.63;;;17.90;53.30;;;;;;5069387;28;20035;-69
2021/05/15 11:40:44;;;;;;;1.20;0.40;;;17.90;53.90;;;;;;5070046;28;20036;-69
2021/05/15 11:43:10;;;;;;;2.45;0.40;;;17.90;53.80;;;;;;5064127;28;20489;-70
2021/05/15 11:45:36;;;;;;;2.95;0.20;;;17.90;53.50;;;;;;5066856;28;20491;-69
2021/05/15 11:48:19;;;;;;;0.95;0.38;;;17.90;52.80;;;;;;5061149;28;20089;-70
2021/05/15 11:51:02;;;;;;;3.70;0.40;;;17.90;52.60;;;;;;5065608;28;20103;-70
2021/05/15 11:53:29;;;;;;;0.45;0.35;;;17.90;52.40;;;;;;5068650;28;20028;-70
2021/05/15 11:55:55;;;;;;;0.90;0.32;;;18.00;52.20;;;;;;5071855;28;20476;-70
2021/05/15 11:58:21;;;;;;;0.73;0.40;;;17.90;52.00;;;;;;5072768;28;20089;-70
2021/05/15 12:00:48;;;;;;;2.70;1.10;;;17.90;51.40;;;;;;5071059;28;20028;-69
2021/05/15 12:03:25;;;;;;;3.90;0.50;;;17.90;51.70;;;;;;5073887;28;20055;-69
2021/05/15 12:05:52;;;;;;;1.42;0.40;;;17.90;52.10;;;;;;5064754;28;20349;-69
2021/05/15 12:08:18;;;;;;;1.42;0.40;;;17.90;52.30;;;;;;5072047;28;20476;-69
2021/05/15 12:10:48;;;;;;;0.30;0.30;;;18.00;52.20;;;;;;5073062;28;20391;-69
2021/05/15 12:13:15;;;;;;;1.30;0.45;;;18.10;52.80;;;;;;5074586;28;20035;-70
2021/05/15 12:15:48;;;;;;;0.85;0.35;;;18.20;52.40;;;;;;5071964;28;20043;-70
2021/05/15 12:18:14;;;;;;;0.93;0.40;;;18.30;51.90;;;;;;5072157;28;20025;-69
2021/05/15 12:20:42;;;;;;;0.55;0.30;;;18.20;52.10;;;;;;5073714;28;20025;-70
2021/05/15 12:23:10;;;;;;;1.73;0.50;;;18.20;52.00;;;;;;5074592;28;20025;-70
2021/05/15 12:25:37;;;;;;;0.73;0.40;;;18.10;52.10;;;;;;5069046;28;20028;-70
2021/05/15 12:28:04;;;;;;;0.40;0.40;;;17.90;52.60;;;;;;5072792;28;20077;-69
2021/05/15 12:30:35;;;;;;;0.50;0.43;;;17.80;52.90;;;;;;5074168;28;20033;-70
2021/05/15 12:33:09;;;;;;;0.55;0.40;;;17.60;52.90;;;;;;5074020;28;20024;-70
2021/05/15 12:35:35;;;;;;;0.52;0.52;;;17.40;53.20;;;;;;5074419;28;20392;-70
2021/05/15 12:38:03;;;;;;;0.77;0.38;;;17.20;53.70;;;;;;5073216;28;20035;-70
2021/05/15 12:40:30;;;;;;;1.27;0.43;;;16.90;53.80;;;;;;5073157;28;20039;-69
2021/05/15 12:43:10;;;;;;;0.88;0.30;;;16.60;54.40;;;;;;5068411;28;20020;-74
2021/05/15 12:45:40;;;;;;;1.33;0.47;;;16.40;55.40;;;;;;5070064;28;20550;-70
2021/05/15 12:48:19;;;;;;;1.48;0.60;;;16.30;56.00;;;;;;5056755;28;20020;-68
2021/05/15 12:50:48;;;;;;;1.25;0.30;;;16.30;56.30;;;;;;5049956;28;20028;-69
2021/05/15 12:53:15;;;;;;;0.47;0.30;;;16.20;56.40;;;;;;5064768;28;20101;-68